sensor_id;sensor_type;location;lat;lon;timestamp;P1;durP1;ratioP1;P2;durP2;ratioP2
14984;SDS011;7588;62.368;25.902;2023-02-01T00:01:23;1.93;;;1.83;;
14984;SDS011;7588;62.368;25.902;2023-02-01T00:03:49;1.70;;;1.70;;
14984;SDS011;7588;62.368;25.902;2023-02-01T00:06:14;2.23;;;2.13;;
14984;SDS011;7588;62.368;25.902;2023-02-01T00:08:40;2.23;;;2.13;;
14984;SDS011;7588;62.368;25.902;2023-02-01T00:11:07;4.63;;;2.30;;
14984;SDS011;7588;62.368;25.902;2023-02-01T00:13:36;1.57;;;1.57;;
14984;SDS011;7588;62.368;25.902;2023-02-01T00:18:34;2.30;;;2.20;;
14984;SDS011;7588;62.368;25.902;2023-02-01T00:21:00;1.83;;;1.73;;
14984;SDS011;7588;62.368;25.902;2023-02-01T00:23:26;2.07;;;1.97;;
14984;SDS011;7588;62.368;25.902;2023-02-01T00:25:52;2.10;;;2.00;;
14984;SDS011;7588;62.368;25.902;2023-02-01T00:28:18;2.37;;;2.27;;
14984;SDS011;7588;62.368;25.902;2023-02-01T00:30:44;2.17;;;2.07;;
14984;SDS011;7588;62.368;25.902;2023-02-01T00:33:09;2.07;;;2.07;;
14984;SDS011;7588;62.368;25.902;2023-02-01T00:35:35;2.40;;;2.30;;
14984;SDS011;7588;62.368;25.902;2023-02-01T00:38:01;2.50;;;2.40;;
14984;SDS011;7588;62.368;25.902;2023-02-01T00:40:27;2.20;;;2.10;;
14984;SDS011;7588;62.368;25.902;2023-02-01T00:42:53;2.40;;;2.30;;
14984;SDS011;7588;62.368;25.902;2023-02-01T00:45:19;1.90;;;1.80;;
14984;SDS011;7588;62.368;25.902;2023-02-01T00:47:45;2.00;;;1.90;;
14984;SDS011;7588;62.368;25.902;2023-02-01T00:50:11;2.70;;;2.60;;
14984;SDS011;7588;62.368;25.902;2023-02-01T00:52:36;2.67;;;2.57;;
14984;SDS011;7588;62.368;25.902;2023-02-01T00:55:02;2.10;;;2.00;;
14984;SDS011;7588;62.368;25.902;2023-02-01T00:57:28;2.70;;;2.50;;
14984;SDS011;7588;62.368;25.902;2023-02-01T00:59:54;1.80;;;1.70;;
14984;SDS011;7588;62.368;25.902;2023-02-01T01:02:19;2.07;;;1.97;;
14984;SDS011;7588;62.368;25.902;2023-02-01T01:04:45;2.60;;;2.50;;
14984;SDS011;7588;62.368;25.902;2023-02-01T01:07:11;2.47;;;2.37;;
14984;SDS011;7588;62.368;25.902;2023-02-01T01:09:37;2.83;;;2.60;;
14984;SDS011;7588;62.368;25.902;2023-02-01T01:12:02;2.17;;;2.07;;
14984;SDS011;7588;62.368;25.902;2023-02-01T01:14:28;2.80;;;2.70;;
14984;SDS011;7588;62.368;25.902;2023-02-01T01:16:54;5.20;;;3.03;;
14984;SDS011;7588;62.368;25.902;2023-02-01T01:19:20;2.97;;;2.87;;
14984;SDS011;7588;62.368;25.902;2023-02-01T01:21:46;3.20;;;3.00;;
14984;SDS011;7588;62.368;25.902;2023-02-01T01:24:12;3.20;;;3.00;;
14984;SDS011;7588;62.368;25.902;2023-02-01T01:26:38;3.03;;;2.83;;
14984;SDS011;7588;62.368;25.902;2023-02-01T01:29:03;3.80;;;3.50;;
14984;SDS011;7588;62.368;25.902;2023-02-01T01:31:31;3.17;;;2.93;;
14984;SDS011;7588;62.368;25.902;2023-02-01T01:33:57;2.90;;;2.70;;
14984;SDS011;7588;62.368;25.902;2023-02-01T01:36:24;3.97;;;3.67;;
14984;SDS011;7588;62.368;25.902;2023-02-01T01:38:51;3.50;;;3.20;;
14984;SDS011;7588;62.368;25.902;2023-02-01T01:41:21;3.30;;;3.10;;
14984;SDS011;7588;62.368;25.902;2023-02-01T01:43:50;3.20;;;2.67;;
14984;SDS011;7588;62.368;25.902;2023-02-01T01:46:26;3.07;;;2.87;;
14984;SDS011;7588;62.368;25.902;2023-02-01T01:51:26;2.43;;;2.33;;
14984;SDS011;7588;62.368;25.902;2023-02-01T01:54:38;3.10;;;2.90;;
14984;SDS011;7588;62.368;25.902;2023-02-01T01:56:51;3.67;;;3.33;;
14984;SDS011;7588;62.368;25.902;2023-02-01T01:59:29;3.00;;;2.70;;
14984;SDS011;7588;62.368;25.902;2023-02-01T02:01:57;2.43;;;2.33;;
14984;SDS011;7588;62.368;25.902;2023-02-01T02:04:23;2.90;;;2.53;;
14984;SDS011;7588;62.368;25.902;2023-02-01T02:06:51;3.00;;;2.80;;
14984;SDS011;7588;62.368;25.902;2023-02-01T02:09:22;2.63;;;2.50;;
14984;SDS011;7588;62.368;25.902;2023-02-01T02:11:48;2.63;;;2.43;;
14984;SDS011;7588;62.368;25.902;2023-02-01T02:14:14;2.50;;;2.37;;
14984;SDS011;7588;62.368;25.902;2023-02-01T02:25:45;2.73;;;2.60;;
14984;SDS011;7588;62.368;25.902;2023-02-01T02:41:19;3.23;;;3.03;;
14984;SDS011;7588;62.368;25.902;2023-02-01T02:44:17;3.00;;;2.83;;
14984;SDS011;7588;62.368;25.902;2023-02-01T02:47:17;3.10;;;2.97;;
14984;SDS011;7588;62.368;25.902;2023-02-01T02:50:11;3.20;;;2.90;;
14984;SDS011;7588;62.368;25.902;2023-02-01T02:53:48;2.77;;;2.67;;
14984;SDS011;7588;62.368;25.902;2023-02-01T02:56:27;2.70;;;2.60;;
14984;SDS011;7588;62.368;25.902;2023-02-01T02:59:15;3.20;;;3.00;;
14984;SDS011;7588;62.368;25.902;2023-02-01T03:02:02;2.67;;;2.57;;
14984;SDS011;7588;62.368;25.902;2023-02-01T03:04:46;3.60;;;3.30;;
14984;SDS011;7588;62.368;25.902;2023-02-01T03:10:10;3.97;;;3.67;;
14984;SDS011;7588;62.368;25.902;2023-02-01T03:12:47;3.63;;;3.33;;
14984;SDS011;7588;62.368;25.902;2023-02-01T03:15:21;3.63;;;3.43;;
14984;SDS011;7588;62.368;25.902;2023-02-01T03:18:00;2.90;;;2.70;;
14984;SDS011;7588;62.368;25.902;2023-02-01T03:20:30;3.80;;;3.50;;
14984;SDS011;7588;62.368;25.902;2023-02-01T03:22:57;3.97;;;3.67;;
14984;SDS011;7588;62.368;25.902;2023-02-01T03:25:25;2.73;;;2.53;;
14984;SDS011;7588;62.368;25.902;2023-02-01T03:28:02;3.27;;;3.07;;
14984;SDS011;7588;62.368;25.902;2023-02-01T03:30:43;2.93;;;2.73;;
14984;SDS011;7588;62.368;25.902;2023-02-01T03:33:13;3.40;;;3.10;;
14984;SDS011;7588;62.368;25.902;2023-02-01T03:38:56;3.70;;;3.40;;
14984;SDS011;7588;62.368;25.902;2023-02-01T03:41:38;3.80;;;3.50;;
14984;SDS011;7588;62.368;25.902;2023-02-01T03:46:47;3.80;;;3.60;;
14984;SDS011;7588;62.368;25.902;2023-02-01T03:49:17;4.07;;;3.77;;
14984;SDS011;7588;62.368;25.902;2023-02-01T03:51:51;3.70;;;3.50;;
14984;SDS011;7588;62.368;25.902;2023-02-01T03:54:18;3.90;;;3.60;;
14984;SDS011;7588;62.368;25.902;2023-02-01T03:56:45;3.50;;;3.20;;
14984;SDS011;7588;62.368;25.902;2023-02-01T03:59:13;4.07;;;3.77;;
14984;SDS011;7588;62.368;25.902;2023-02-01T04:01:39;4.53;;;4.13;;
14984;SDS011;7588;62.368;25.902;2023-02-01T04:04:05;4.20;;;3.90;;
14984;SDS011;7588;62.368;25.902;2023-02-01T04:06:31;4.10;;;3.80;;
14984;SDS011;7588;62.368;25.902;2023-02-01T04:08:57;4.67;;;3.50;;
14984;SDS011;7588;62.368;25.902;2023-02-01T04:11:23;4.40;;;3.40;;
14984;SDS011;7588;62.368;25.902;2023-02-01T04:13:49;4.03;;;3.23;;
14984;SDS011;7588;62.368;25.902;2023-02-01T04:16:14;3.87;;;3.57;;
14984;SDS011;7588;62.368;25.902;2023-02-01T04:18:40;4.00;;;3.70;;
14984;SDS011;7588;62.368;25.902;2023-02-01T04:21:06;3.67;;;3.37;;
14984;SDS011;7588;62.368;25.902;2023-02-01T04:23:32;3.40;;;3.20;;
14984;SDS011;7588;62.368;25.902;2023-02-01T04:26:01;3.47;;;3.27;;
14984;SDS011;7588;62.368;25.902;2023-02-01T04:28:28;4.00;;;3.70;;
14984;SDS011;7588;62.368;25.902;2023-02-01T04:30:54;3.00;;;2.80;;
14984;SDS011;7588;62.368;25.902;2023-02-01T04:33:20;3.50;;;3.30;;
14984;SDS011;7588;62.368;25.902;2023-02-01T04:35:46;4.10;;;3.80;;
14984;SDS011;7588;62.368;25.902;2023-02-01T04:38:12;3.80;;;3.47;;
14984;SDS011;7588;62.368;25.902;2023-02-01T04:40:38;3.87;;;3.57;;
14984;SDS011;7588;62.368;25.902;2023-02-01T04:43:04;4.40;;;4.00;;
14984;SDS011;7588;62.368;25.902;2023-02-01T04:45:30;3.70;;;3.50;;
14984;SDS011;7588;62.368;25.902;2023-02-01T04:47:56;3.93;;;3.63;;
14984;SDS011;7588;62.368;25.902;2023-02-01T04:50:22;3.33;;;3.03;;
14984;SDS011;7588;62.368;25.902;2023-02-01T04:52:48;3.20;;;3.00;;
14984;SDS011;7588;62.368;25.902;2023-02-01T04:55:14;3.13;;;2.93;;
14984;SDS011;7588;62.368;25.902;2023-02-01T04:57:40;3.33;;;3.03;;
14984;SDS011;7588;62.368;25.902;2023-02-01T05:00:07;3.47;;;3.10;;
14984;SDS011;7588;62.368;25.902;2023-02-01T05:02:33;4.33;;;2.77;;
14984;SDS011;7588;62.368;25.902;2023-02-01T05:05:00;3.30;;;3.10;;
14984;SDS011;7588;62.368;25.902;2023-02-01T05:07:26;4.43;;;3.20;;
14984;SDS011;7588;62.368;25.902;2023-02-01T05:09:52;3.23;;;3.00;;
14984;SDS011;7588;62.368;25.902;2023-02-01T05:12:17;2.30;;;2.20;;
14984;SDS011;7588;62.368;25.902;2023-02-01T05:15:02;3.33;;;3.13;;
14984;SDS011;7588;62.368;25.902;2023-02-01T05:17:28;3.00;;;2.80;;
14984;SDS011;7588;62.368;25.902;2023-02-01T05:19:53;3.37;;;3.07;;
14984;SDS011;7588;62.368;25.902;2023-02-01T05:22:19;3.00;;;2.80;;
14984;SDS011;7588;62.368;25.902;2023-02-01T05:24:45;3.37;;;3.17;;
14984;SDS011;7588;62.368;25.902;2023-02-01T05:27:11;3.27;;;3.07;;
14984;SDS011;7588;62.368;25.902;2023-02-01T05:29:36;5.53;;;2.83;;
14984;SDS011;7588;62.368;25.902;2023-02-01T05:32:02;3.13;;;2.90;;
14984;SDS011;7588;62.368;25.902;2023-02-01T05:34:28;3.50;;;3.27;;
14984;SDS011;7588;62.368;25.902;2023-02-01T05:36:54;3.40;;;3.10;;
14984;SDS011;7588;62.368;25.902;2023-02-01T05:39:19;3.27;;;2.90;;
14984;SDS011;7588;62.368;25.902;2023-02-01T05:41:45;2.80;;;2.60;;
14984;SDS011;7588;62.368;25.902;2023-02-01T05:44:14;2.90;;;2.80;;
14984;SDS011;7588;62.368;25.902;2023-02-01T05:46:39;3.47;;;3.20;;
14984;SDS011;7588;62.368;25.902;2023-02-01T05:49:05;3.07;;;2.87;;
14984;SDS011;7588;62.368;25.902;2023-02-01T05:51:31;3.30;;;3.00;;
14984;SDS011;7588;62.368;25.902;2023-02-01T05:53:57;3.43;;;3.13;;
14984;SDS011;7588;62.368;25.902;2023-02-01T05:56:22;3.20;;;2.97;;
14984;SDS011;7588;62.368;25.902;2023-02-01T05:58:48;3.43;;;3.13;;
14984;SDS011;7588;62.368;25.902;2023-02-01T06:01:14;2.67;;;2.30;;
14984;SDS011;7588;62.368;25.902;2023-02-01T06:03:39;3.07;;;2.87;;
14984;SDS011;7588;62.368;25.902;2023-02-01T06:06:05;3.17;;;2.97;;
14984;SDS011;7588;62.368;25.902;2023-02-01T06:08:31;4.43;;;4.00;;
14984;SDS011;7588;62.368;25.902;2023-02-01T06:11:00;3.43;;;3.23;;
14984;SDS011;7588;62.368;25.902;2023-02-01T06:13:28;3.53;;;3.33;;
14984;SDS011;7588;62.368;25.902;2023-02-01T06:15:54;3.13;;;2.93;;
14984;SDS011;7588;62.368;25.902;2023-02-01T06:18:21;4.33;;;2.90;;
14984;SDS011;7588;62.368;25.902;2023-02-01T06:20:51;3.23;;;3.03;;
14984;SDS011;7588;62.368;25.902;2023-02-01T06:23:18;3.23;;;2.93;;
14984;SDS011;7588;62.368;25.902;2023-02-01T06:25:44;3.10;;;2.90;;
14984;SDS011;7588;62.368;25.902;2023-02-01T06:28:10;2.80;;;2.60;;
14984;SDS011;7588;62.368;25.902;2023-02-01T06:30:35;3.47;;;3.17;;
14984;SDS011;7588;62.368;25.902;2023-02-01T06:33:01;5.43;;;3.50;;
14984;SDS011;7588;62.368;25.902;2023-02-01T06:35:27;3.27;;;3.07;;
14984;SDS011;7588;62.368;25.902;2023-02-01T06:37:53;3.60;;;3.30;;
14984;SDS011;7588;62.368;25.902;2023-02-01T06:40:18;2.93;;;2.73;;
14984;SDS011;7588;62.368;25.902;2023-02-01T06:42:44;3.13;;;2.93;;
14984;SDS011;7588;62.368;25.902;2023-02-01T06:45:10;3.60;;;2.90;;
14984;SDS011;7588;62.368;25.902;2023-02-01T06:47:36;3.20;;;2.90;;
14984;SDS011;7588;62.368;25.902;2023-02-01T06:50:01;2.73;;;2.50;;
14984;SDS011;7588;62.368;25.902;2023-02-01T06:52:27;2.30;;;2.10;;
14984;SDS011;7588;62.368;25.902;2023-02-01T06:54:53;3.03;;;2.73;;
14984;SDS011;7588;62.368;25.902;2023-02-01T06:57:19;3.07;;;2.87;;
14984;SDS011;7588;62.368;25.902;2023-02-01T06:59:45;2.80;;;2.60;;
14984;SDS011;7588;62.368;25.902;2023-02-01T07:02:10;3.43;;;3.20;;
14984;SDS011;7588;62.368;25.902;2023-02-01T07:04:36;2.60;;;2.50;;
14984;SDS011;7588;62.368;25.902;2023-02-01T07:07:02;4.03;;;2.30;;
14984;SDS011;7588;62.368;25.902;2023-02-01T07:09:28;2.83;;;2.73;;
14984;SDS011;7588;62.368;25.902;2023-02-01T07:11:54;3.20;;;3.00;;
14984;SDS011;7588;62.368;25.902;2023-02-01T07:14:19;3.33;;;2.90;;
14984;SDS011;7588;62.368;25.902;2023-02-01T07:16:45;3.30;;;3.10;;
14984;SDS011;7588;62.368;25.902;2023-02-01T07:19:11;4.17;;;2.90;;
14984;SDS011;7588;62.368;25.902;2023-02-01T07:21:36;3.40;;;3.20;;
14984;SDS011;7588;62.368;25.902;2023-02-01T07:24:02;3.10;;;2.90;;
14984;SDS011;7588;62.368;25.902;2023-02-01T07:26:28;4.17;;;2.80;;
14984;SDS011;7588;62.368;25.902;2023-02-01T07:28:54;2.70;;;2.50;;
14984;SDS011;7588;62.368;25.902;2023-02-01T07:31:20;2.50;;;2.33;;
14984;SDS011;7588;62.368;25.902;2023-02-01T07:33:47;3.00;;;2.70;;
14984;SDS011;7588;62.368;25.902;2023-02-01T07:36:16;3.30;;;3.00;;
14984;SDS011;7588;62.368;25.902;2023-02-01T07:38:43;3.13;;;2.80;;
14984;SDS011;7588;62.368;25.902;2023-02-01T07:41:09;3.97;;;3.63;;
14984;SDS011;7588;62.368;25.902;2023-02-01T07:43:35;3.40;;;3.10;;
14984;SDS011;7588;62.368;25.902;2023-02-01T07:46:02;4.07;;;3.67;;
14984;SDS011;7588;62.368;25.902;2023-02-01T07:48:29;5.57;;;5.17;;
14984;SDS011;7588;62.368;25.902;2023-02-01T07:50:59;6.73;;;5.83;;
14984;SDS011;7588;62.368;25.902;2023-02-01T07:53:28;4.67;;;4.03;;
14984;SDS011;7588;62.368;25.902;2023-02-01T07:55:55;3.97;;;3.27;;
14984;SDS011;7588;62.368;25.902;2023-02-01T07:58:23;3.27;;;2.97;;
14984;SDS011;7588;62.368;25.902;2023-02-01T08:00:50;3.30;;;3.10;;
14984;SDS011;7588;62.368;25.902;2023-02-01T08:03:34;3.47;;;3.00;;
14984;SDS011;7588;62.368;25.902;2023-02-01T08:06:00;4.17;;;3.90;;
14984;SDS011;7588;62.368;25.902;2023-02-01T08:08:30;5.97;;;5.50;;
14984;SDS011;7588;62.368;25.902;2023-02-01T08:10:57;4.57;;;4.17;;
14984;SDS011;7588;62.368;25.902;2023-02-01T08:13:27;3.47;;;3.20;;
14984;SDS011;7588;62.368;25.902;2023-02-01T08:15:57;3.90;;;3.50;;
14984;SDS011;7588;62.368;25.902;2023-02-01T08:18:27;3.40;;;3.07;;
14984;SDS011;7588;62.368;25.902;2023-02-01T08:20:53;4.37;;;3.07;;
14984;SDS011;7588;62.368;25.902;2023-02-01T08:23:20;4.23;;;3.93;;
14984;SDS011;7588;62.368;25.902;2023-02-01T08:25:46;3.83;;;3.37;;
14984;SDS011;7588;62.368;25.902;2023-02-01T08:28:12;7.17;;;6.30;;
14984;SDS011;7588;62.368;25.902;2023-02-01T08:30:39;8.20;;;7.07;;
14984;SDS011;7588;62.368;25.902;2023-02-01T08:33:05;4.23;;;3.43;;
14984;SDS011;7588;62.368;25.902;2023-02-01T08:35:34;4.73;;;3.50;;
14984;SDS011;7588;62.368;25.902;2023-02-01T08:38:01;4.87;;;3.20;;
14984;SDS011;7588;62.368;25.902;2023-02-01T08:40:26;3.73;;;3.43;;
14984;SDS011;7588;62.368;25.902;2023-02-01T08:42:53;4.23;;;3.70;;
14984;SDS011;7588;62.368;25.902;2023-02-01T08:45:23;4.67;;;4.27;;
14984;SDS011;7588;62.368;25.902;2023-02-01T08:47:51;6.17;;;3.63;;
14984;SDS011;7588;62.368;25.902;2023-02-01T08:50:17;4.60;;;3.40;;
14984;SDS011;7588;62.368;25.902;2023-02-01T08:52:44;7.27;;;5.13;;
14984;SDS011;7588;62.368;25.902;2023-02-01T08:55:10;4.23;;;3.83;;
14984;SDS011;7588;62.368;25.902;2023-02-01T08:57:37;4.20;;;3.80;;
14984;SDS011;7588;62.368;25.902;2023-02-01T09:00:04;5.57;;;2.73;;
14984;SDS011;7588;62.368;25.902;2023-02-01T09:02:31;4.47;;;2.60;;
14984;SDS011;7588;62.368;25.902;2023-02-01T09:04:57;3.03;;;2.70;;
14984;SDS011;7588;62.368;25.902;2023-02-01T09:07:23;3.20;;;2.97;;
14984;SDS011;7588;62.368;25.902;2023-02-01T09:09:48;2.57;;;2.37;;
14984;SDS011;7588;62.368;25.902;2023-02-01T09:12:14;4.73;;;2.80;;
14984;SDS011;7588;62.368;25.902;2023-02-01T09:14:40;3.13;;;2.80;;
14984;SDS011;7588;62.368;25.902;2023-02-01T09:17:05;2.50;;;2.30;;
14984;SDS011;7588;62.368;25.902;2023-02-01T09:19:31;2.37;;;2.03;;
14984;SDS011;7588;62.368;25.902;2023-02-01T09:21:57;3.30;;;1.70;;
14984;SDS011;7588;62.368;25.902;2023-02-01T09:24:23;3.23;;;2.90;;
14984;SDS011;7588;62.368;25.902;2023-02-01T09:26:49;2.30;;;1.60;;
14984;SDS011;7588;62.368;25.902;2023-02-01T09:29:15;1.90;;;1.80;;
14984;SDS011;7588;62.368;25.902;2023-02-01T09:31:41;2.47;;;2.37;;
14984;SDS011;7588;62.368;25.902;2023-02-01T09:34:08;6.97;;;5.73;;
14984;SDS011;7588;62.368;25.902;2023-02-01T09:36:34;6.50;;;6.00;;
14984;SDS011;7588;62.368;25.902;2023-02-01T09:39:00;2.03;;;1.93;;
14984;SDS011;7588;62.368;25.902;2023-02-01T09:41:30;2.40;;;2.20;;
14984;SDS011;7588;62.368;25.902;2023-02-01T09:46:57;1.90;;;1.80;;
14984;SDS011;7588;62.368;25.902;2023-02-01T09:49:29;1.97;;;1.87;;
14984;SDS011;7588;62.368;25.902;2023-02-01T09:51:57;1.30;;;1.30;;
14984;SDS011;7588;62.368;25.902;2023-02-01T09:54:36;2.23;;;1.40;;
14984;SDS011;7588;62.368;25.902;2023-02-01T09:59:49;2.33;;;1.40;;
14984;SDS011;7588;62.368;25.902;2023-02-01T10:02:25;1.63;;;1.53;;
14984;SDS011;7588;62.368;25.902;2023-02-01T10:04:57;2.03;;;1.93;;
14984;SDS011;7588;62.368;25.902;2023-02-01T10:10:17;3.47;;;3.27;;
14984;SDS011;7588;62.368;25.902;2023-02-01T10:29:48;5.30;;;4.80;;
14984;SDS011;7588;62.368;25.902;2023-02-01T10:32:31;1.50;;;1.43;;
14984;SDS011;7588;62.368;25.902;2023-02-01T10:35:00;1.70;;;1.70;;
14984;SDS011;7588;62.368;25.902;2023-02-01T10:37:33;1.53;;;1.43;;
14984;SDS011;7588;62.368;25.902;2023-02-01T10:40:01;11.63;;;5.23;;
14984;SDS011;7588;62.368;25.902;2023-02-01T10:42:52;1.90;;;1.70;;
14984;SDS011;7588;62.368;25.902;2023-02-01T10:45:20;2.00;;;1.90;;
14984;SDS011;7588;62.368;25.902;2023-02-01T10:47:49;2.20;;;2.10;;
14984;SDS011;7588;62.368;25.902;2023-02-01T10:52:57;1.57;;;1.50;;
14984;SDS011;7588;62.368;25.902;2023-02-01T10:55:34;1.67;;;1.57;;
14984;SDS011;7588;62.368;25.902;2023-02-01T10:58:05;1.40;;;1.30;;
14984;SDS011;7588;62.368;25.902;2023-02-01T11:00:35;1.60;;;1.50;;
14984;SDS011;7588;62.368;25.902;2023-02-01T11:05:55;2.60;;;1.50;;
14984;SDS011;7588;62.368;25.902;2023-02-01T11:08:21;1.60;;;1.50;;
14984;SDS011;7588;62.368;25.902;2023-02-01T11:10:49;1.27;;;1.27;;
14984;SDS011;7588;62.368;25.902;2023-02-01T11:13:30;2.10;;;2.00;;
14984;SDS011;7588;62.368;25.902;2023-02-01T11:16:01;2.87;;;2.20;;
14984;SDS011;7588;62.368;25.902;2023-02-01T11:18:33;1.60;;;1.50;;
14984;SDS011;7588;62.368;25.902;2023-02-01T11:21:02;1.43;;;1.40;;
14984;SDS011;7588;62.368;25.902;2023-02-01T11:23:29;1.40;;;1.30;;
14984;SDS011;7588;62.368;25.902;2023-02-01T11:26:09;1.90;;;1.80;;
14984;SDS011;7588;62.368;25.902;2023-02-01T11:28:40;1.37;;;1.37;;
14984;SDS011;7588;62.368;25.902;2023-02-01T11:31:15;1.63;;;1.43;;
14984;SDS011;7588;62.368;25.902;2023-02-01T11:33:43;1.63;;;1.30;;
14984;SDS011;7588;62.368;25.902;2023-02-01T11:36:16;1.77;;;1.40;;
14984;SDS011;7588;62.368;25.902;2023-02-01T11:39:07;4.20;;;2.57;;
14984;SDS011;7588;62.368;25.902;2023-02-01T11:41:54;5.80;;;2.93;;
14984;SDS011;7588;62.368;25.902;2023-02-01T11:44:22;2.77;;;1.80;;
14984;SDS011;7588;62.368;25.902;2023-02-01T11:46:55;3.50;;;2.47;;
14984;SDS011;7588;62.368;25.902;2023-02-01T11:51:59;2.80;;;2.20;;
14984;SDS011;7588;62.368;25.902;2023-02-01T12:33:48;2.90;;;1.60;;
14984;SDS011;7588;62.368;25.902;2023-02-01T12:39:04;2.07;;;1.70;;
14984;SDS011;7588;62.368;25.902;2023-02-01T12:45:25;2.10;;;1.90;;
14984;SDS011;7588;62.368;25.902;2023-02-01T12:51:04;1.90;;;1.80;;
14984;SDS011;7588;62.368;25.902;2023-02-01T12:58:56;1.77;;;1.53;;
14984;SDS011;7588;62.368;25.902;2023-02-01T13:01:37;2.43;;;1.90;;
14984;SDS011;7588;62.368;25.902;2023-02-01T13:09:24;2.47;;;1.80;;
14984;SDS011;7588;62.368;25.902;2023-02-01T13:12:10;2.40;;;1.90;;
14984;SDS011;7588;62.368;25.902;2023-02-01T13:15:02;2.17;;;1.97;;
14984;SDS011;7588;62.368;25.902;2023-02-01T13:17:36;1.67;;;1.57;;
14984;SDS011;7588;62.368;25.902;2023-02-01T13:20:06;2.20;;;2.00;;
14984;SDS011;7588;62.368;25.902;2023-02-01T13:23:07;2.13;;;1.93;;
14984;SDS011;7588;62.368;25.902;2023-02-01T13:25:44;1.60;;;1.50;;
14984;SDS011;7588;62.368;25.902;2023-02-01T13:28:26;1.80;;;1.70;;
14984;SDS011;7588;62.368;25.902;2023-02-01T13:44:12;4.33;;;3.60;;
14984;SDS011;7588;62.368;25.902;2023-02-01T13:46:42;3.43;;;3.13;;
14984;SDS011;7588;62.368;25.902;2023-02-01T13:49:25;2.37;;;2.17;;
14984;SDS011;7588;62.368;25.902;2023-02-01T13:51:55;2.13;;;1.67;;
14984;SDS011;7588;62.368;25.902;2023-02-01T13:54:27;3.10;;;2.73;;
14984;SDS011;7588;62.368;25.902;2023-02-01T13:56:58;2.37;;;2.17;;
14984;SDS011;7588;62.368;25.902;2023-02-01T14:13:29;1.70;;;1.60;;
14984;SDS011;7588;62.368;25.902;2023-02-01T14:26:40;2.10;;;1.90;;
14984;SDS011;7588;62.368;25.902;2023-02-01T14:29:34;2.50;;;2.30;;
14984;SDS011;7588;62.368;25.902;2023-02-01T14:32:03;4.10;;;2.20;;
14984;SDS011;7588;62.368;25.902;2023-02-01T14:34:48;2.57;;;2.37;;
14984;SDS011;7588;62.368;25.902;2023-02-01T14:44:50;2.60;;;2.40;;
14984;SDS011;7588;62.368;25.902;2023-02-01T14:52:45;3.20;;;3.00;;
14984;SDS011;7588;62.368;25.902;2023-02-01T14:55:34;4.27;;;3.73;;
14984;SDS011;7588;62.368;25.902;2023-02-01T15:06:44;6.17;;;5.17;;
14984;SDS011;7588;62.368;25.902;2023-02-01T15:09:24;5.40;;;4.50;;
14984;SDS011;7588;62.368;25.902;2023-02-01T15:14:41;3.43;;;3.23;;
14984;SDS011;7588;62.368;25.902;2023-02-01T15:17:20;3.57;;;3.27;;
14984;SDS011;7588;62.368;25.902;2023-02-01T15:20:01;3.87;;;3.20;;
14984;SDS011;7588;62.368;25.902;2023-02-01T15:22:35;3.80;;;3.37;;
14984;SDS011;7588;62.368;25.902;2023-02-01T15:25:01;3.33;;;2.70;;
14984;SDS011;7588;62.368;25.902;2023-02-01T15:27:28;4.10;;;2.80;;
14984;SDS011;7588;62.368;25.902;2023-02-01T15:30:04;3.97;;;3.00;;
14984;SDS011;7588;62.368;25.902;2023-02-01T15:32:35;2.87;;;2.60;;
14984;SDS011;7588;62.368;25.902;2023-02-01T15:35:03;2.90;;;2.50;;
14984;SDS011;7588;62.368;25.902;2023-02-01T15:37:30;4.73;;;3.20;;
14984;SDS011;7588;62.368;25.902;2023-02-01T15:42:39;3.53;;;3.20;;
14984;SDS011;7588;62.368;25.902;2023-02-01T15:45:17;3.37;;;3.07;;
14984;SDS011;7588;62.368;25.902;2023-02-01T15:47:51;3.13;;;2.47;;
14984;SDS011;7588;62.368;25.902;2023-02-01T15:50:19;3.93;;;3.13;;
14984;SDS011;7588;62.368;25.902;2023-02-01T15:52:46;3.13;;;2.83;;
14984;SDS011;7588;62.368;25.902;2023-02-01T15:55:20;4.07;;;3.40;;
14984;SDS011;7588;62.368;25.902;2023-02-01T15:58:05;6.80;;;3.77;;
14984;SDS011;7588;62.368;25.902;2023-02-01T16:00:35;4.50;;;4.10;;
14984;SDS011;7588;62.368;25.902;2023-02-01T16:03:24;4.87;;;3.80;;
14984;SDS011;7588;62.368;25.902;2023-02-01T16:05:59;4.40;;;3.67;;
14984;SDS011;7588;62.368;25.902;2023-02-01T16:08:28;5.33;;;4.60;;
14984;SDS011;7588;62.368;25.902;2023-02-01T16:11:29;8.23;;;5.10;;
14984;SDS011;7588;62.368;25.902;2023-02-01T16:13:52;4.73;;;3.63;;
14984;SDS011;7588;62.368;25.902;2023-02-01T16:16:18;5.37;;;4.03;;
14984;SDS011;7588;62.368;25.902;2023-02-01T16:18:44;6.33;;;4.77;;
14984;SDS011;7588;62.368;25.902;2023-02-01T16:21:10;6.43;;;4.40;;
14984;SDS011;7588;62.368;25.902;2023-02-01T16:23:36;6.17;;;4.33;;
14984;SDS011;7588;62.368;25.902;2023-02-01T16:26:05;5.70;;;5.10;;
14984;SDS011;7588;62.368;25.902;2023-02-01T16:28:31;8.53;;;5.03;;
14984;SDS011;7588;62.368;25.902;2023-02-01T16:30:57;7.47;;;4.87;;
14984;SDS011;7588;62.368;25.902;2023-02-01T16:33:24;6.60;;;5.77;;
14984;SDS011;7588;62.368;25.902;2023-02-01T16:35:51;12.10;;;7.07;;
14984;SDS011;7588;62.368;25.902;2023-02-01T16:38:20;58.57;;;22.20;;
14984;SDS011;7588;62.368;25.902;2023-02-01T16:40:47;23.13;;;12.07;;
14984;SDS011;7588;62.368;25.902;2023-02-01T16:43:15;41.90;;;15.50;;
14984;SDS011;7588;62.368;25.902;2023-02-01T16:45:43;36.97;;;15.97;;
14984;SDS011;7588;62.368;25.902;2023-02-01T16:50:47;10.73;;;7.07;;
14984;SDS011;7588;62.368;25.902;2023-02-01T16:53:16;7.90;;;5.57;;
14984;SDS011;7588;62.368;25.902;2023-02-01T16:55:43;8.03;;;6.63;;
14984;SDS011;7588;62.368;25.902;2023-02-01T16:58:09;8.03;;;7.23;;
14984;SDS011;7588;62.368;25.902;2023-02-01T17:00:35;9.43;;;6.30;;
14984;SDS011;7588;62.368;25.902;2023-02-01T17:03:04;6.67;;;5.17;;
14984;SDS011;7588;62.368;25.902;2023-02-01T17:05:32;9.57;;;5.67;;
14984;SDS011;7588;62.368;25.902;2023-02-01T17:08:00;8.07;;;4.83;;
14984;SDS011;7588;62.368;25.902;2023-02-01T17:10:29;5.93;;;5.33;;
14984;SDS011;7588;62.368;25.902;2023-02-01T17:12:55;7.60;;;4.97;;
14984;SDS011;7588;62.368;25.902;2023-02-01T17:15:23;6.73;;;5.93;;
14984;SDS011;7588;62.368;25.902;2023-02-01T17:17:51;6.37;;;5.77;;
14984;SDS011;7588;62.368;25.902;2023-02-01T17:20:20;8.07;;;5.70;;
14984;SDS011;7588;62.368;25.902;2023-02-01T17:22:48;5.83;;;4.63;;
14984;SDS011;7588;62.368;25.902;2023-02-01T17:25:18;5.80;;;5.30;;
14984;SDS011;7588;62.368;25.902;2023-02-01T17:27:46;7.53;;;5.77;;
14984;SDS011;7588;62.368;25.902;2023-02-01T17:30:15;7.40;;;5.27;;
14984;SDS011;7588;62.368;25.902;2023-02-01T17:32:41;6.23;;;5.43;;
14984;SDS011;7588;62.368;25.902;2023-02-01T17:35:23;6.83;;;5.80;;
14984;SDS011;7588;62.368;25.902;2023-02-01T17:37:51;8.10;;;5.60;;
14984;SDS011;7588;62.368;25.902;2023-02-01T17:40:18;7.53;;;4.93;;
14984;SDS011;7588;62.368;25.902;2023-02-01T17:42:44;5.47;;;4.80;;
14984;SDS011;7588;62.368;25.902;2023-02-01T17:48:01;4.57;;;4.10;;
14984;SDS011;7588;62.368;25.902;2023-02-01T17:50:29;6.67;;;5.10;;
14984;SDS011;7588;62.368;25.902;2023-02-01T17:52:57;4.87;;;4.40;;
14984;SDS011;7588;62.368;25.902;2023-02-01T17:55:23;6.03;;;3.83;;
14984;SDS011;7588;62.368;25.902;2023-02-01T17:57:50;5.30;;;3.63;;
14984;SDS011;7588;62.368;25.902;2023-02-01T18:00:17;5.97;;;4.13;;
14984;SDS011;7588;62.368;25.902;2023-02-01T18:02:43;3.73;;;3.43;;
14984;SDS011;7588;62.368;25.902;2023-02-01T18:05:55;5.60;;;4.23;;
14984;SDS011;7588;62.368;25.902;2023-02-01T18:08:06;5.13;;;3.30;;
14984;SDS011;7588;62.368;25.902;2023-02-01T18:10:32;4.80;;;3.10;;
14984;SDS011;7588;62.368;25.902;2023-02-01T18:12:59;4.23;;;3.73;;
14984;SDS011;7588;62.368;25.902;2023-02-01T18:15:26;4.77;;;3.50;;
14984;SDS011;7588;62.368;25.902;2023-02-01T18:17:53;4.13;;;3.47;;
14984;SDS011;7588;62.368;25.902;2023-02-01T18:20:20;4.97;;;4.07;;
14984;SDS011;7588;62.368;25.902;2023-02-01T18:22:47;4.65;;;3.30;;